createdAt,value
2019-02-05T00:00:54.405Z,101173.31
2019-02-05T00:03:22.390Z,101173.31
2019-02-05T00:05:50.319Z,101168.52
2019-02-05T00:08:18.087Z,101165.05
2019-02-05T00:10:48.921Z,101159.83
2019-02-05T00:13:18.276Z,101164.64
2019-02-05T00:15:45.598Z,101162.03
2019-02-05T00:18:12.780Z,101165.95
2019-02-05T00:20:39.880Z,101162.03
2019-02-05T00:23:09.096Z,101163.78
2019-02-05T00:25:37.295Z,101159.86
2019-02-05T00:28:04.808Z,101155.95
2019-02-05T00:30:32.999Z,101157.29
2019-02-05T00:33:00.131Z,101155.55
2019-02-05T00:35:28.434Z,101157.29
2019-02-05T00:37:56.675Z,101149.02
2019-02-05T00:40:24.083Z,101149.89
2019-02-05T00:42:51.336Z,101141.63
2019-02-05T00:45:19.347Z,101138.15
2019-02-05T00:47:46.664Z,101134.23
2019-02-05T00:50:13.982Z,101135.54
2019-02-05T00:52:41.084Z,101135.14
2019-02-05T00:55:09.446Z,101134.70
2019-02-05T00:57:36.557Z,101127.74
2019-02-05T01:00:09.047Z,101128.17
2019-02-05T01:02:36.550Z,101124.27
2019-02-05T01:05:04.811Z,101126.44
2019-02-05T01:07:31.934Z,101125.16
2019-02-05T01:09:59.027Z,101124.27
2019-02-05T01:12:26.627Z,101122.09
2019-02-05T01:14:53.843Z,101120.38
2019-02-05T01:17:21.055Z,101126.47
2019-02-05T01:19:50.439Z,101120.81
2019-02-05T01:22:17.548Z,101117.33
2019-02-05T01:24:44.640Z,101111.64
2019-02-05T01:27:11.732Z,101113.81
2019-02-05T01:29:41.090Z,101109.50
2019-02-05T01:32:08.196Z,101109.91
2019-02-05T01:34:35.421Z,101112.11
2019-02-05T01:37:03.617Z,101103.84
2019-02-05T01:39:32.942Z,101104.72
2019-02-05T01:42:01.977Z,101105.59
2019-02-05T01:44:29.155Z,101099.06
2019-02-05T01:46:57.455Z,101106.45
2019-02-05T01:49:26.529Z,101097.31
2019-02-05T01:51:53.925Z,101096.45
2019-02-05T01:54:21.133Z,101096.02
2019-02-05T01:56:48.423Z,101094.74
2019-02-05T01:59:17.321Z,101093.00
2019-02-05T02:01:44.532Z,101089.48
2019-02-05T02:04:11.681Z,101090.36
2019-02-05T02:06:38.828Z,101094.27
2019-02-05T02:09:06.931Z,101091.66
2019-02-05T02:11:34.097Z,101087.75
2019-02-05T02:14:01.435Z,101082.56
2019-02-05T02:16:28.705Z,101079.11
2019-02-05T02:18:55.841Z,101076.06
2019-02-05T02:21:22.935Z,101075.19
2019-02-05T02:23:50.052Z,101073.45
2019-02-05T02:26:18.307Z,101080.41
2019-02-05T02:28:45.407Z,101071.71
2019-02-05T02:31:12.551Z,101067.36
2019-02-05T02:33:42.761Z,101060.83
2019-02-05T02:36:10.978Z,101067.83
2019-02-05T02:38:39.274Z,101062.13
2019-02-05T02:41:07.487Z,101058.22
2019-02-05T02:43:35.159Z,101059.53
2019-02-05T02:46:03.746Z,101049.09
2019-02-05T02:48:31.052Z,101051.23
2019-02-05T02:51:00.067Z,101046.44
2019-02-05T02:53:27.157Z,101049.48
2019-02-05T02:55:55.568Z,101055.58
2019-02-05T02:58:22.719Z,101046.00
2019-02-05T03:00:50.368Z,101043.36
2019-02-05T03:03:18.580Z,101048.15
2019-02-05T03:05:45.680Z,101041.63
2019-02-05T03:08:13.985Z,101041.16
2019-02-05T03:10:43.145Z,101038.55
2019-02-05T03:13:12.032Z,101033.33
2019-02-05T03:15:39.529Z,101038.11
2019-02-05T03:18:06.860Z,101030.72
2019-02-05T03:20:35.369Z,101027.67
2019-02-05T03:23:05.388Z,101022.05
2019-02-05T03:25:33.607Z,101026.39
2019-02-05T03:28:00.710Z,101020.33
2019-02-05T03:30:29.076Z,101027.73
2019-02-05T03:35:16.561Z,101013.40
2019-02-05T03:37:43.806Z,101023.84
2019-02-05T03:40:40.910Z,101019.06
2019-02-05T03:43:08.139Z,101017.31
2019-02-05T03:45:35.231Z,101023.84
2019-02-05T03:48:03.383Z,101020.36
2019-02-05T03:50:32.602Z,101019.05
2019-02-05T03:53:02.732Z,101014.73
2019-02-05T03:56:19.045Z,101008.20
2019-02-05T03:59:33.035Z,101005.59
2019-02-05T04:02:41.309Z,101002.55
2019-02-05T04:05:45.065Z,101003.42
2019-02-05T04:08:56.770Z,101006.47
2019-02-05T04:12:10.839Z,101005.16
2019-02-05T04:15:10.842Z,100996.42
2019-02-05T04:18:19.708Z,100999.06
2019-02-05T04:21:26.553Z,100992.11
2019-02-05T04:25:08.803Z,100993.84
2019-02-05T04:28:21.838Z,100992.95
2019-02-05T04:31:37.155Z,100983.38
2019-02-05T04:34:50.734Z,100980.35
2019-02-05T04:38:04.632Z,100972.11
2019-02-05T04:40:50.915Z,100979.05
2019-02-05T04:43:50.323Z,100976.00
2019-02-05T04:46:48.017Z,100977.31
2019-02-05T04:50:04.220Z,100970.38
2019-02-05T04:53:07.822Z,100979.51
2019-02-05T04:56:13.680Z,100976.02
2019-02-05T04:59:09.053Z,100961.66
2019-02-05T05:02:22.602Z,100962.53
2019-02-05T05:05:31.024Z,100953.39
2019-02-05T05:08:40.908Z,100950.38
2019-02-05T05:11:10.076Z,100959.05
2019-02-05T05:13:38.395Z,100953.40
2019-02-05T05:16:06.714Z,100952.97
2019-02-05T05:18:33.925Z,100948.61
2019-02-05T05:21:01.902Z,100953.83
2019-02-05T05:23:29.403Z,100945.56
2019-02-05T05:25:57.826Z,100944.27
2019-02-05T05:28:26.144Z,100940.34
2019-02-05T05:30:54.140Z,100943.83
2019-02-05T05:33:21.517Z,100945.56
2019-02-05T05:35:48.847Z,100944.27
2019-02-05T05:38:15.939Z,100940.77
2019-02-05T05:40:43.034Z,100949.08
2019-02-05T05:43:10.125Z,100940.77
2019-02-05T05:45:37.218Z,100943.39
2019-02-05T05:48:04.324Z,100938.16
2019-02-05T05:50:31.702Z,100946.87
2019-02-05T05:52:58.806Z,100939.03
2019-02-05T05:55:25.939Z,100932.02
2019-02-05T05:57:53.050Z,100940.75
2019-02-05T06:00:20.245Z,100938.14
2019-02-05T06:02:47.357Z,100937.27
2019-02-05T06:05:16.764Z,100933.38
2019-02-05T06:07:43.956Z,100933.38
2019-02-05T06:10:11.647Z,100937.30
2019-02-05T06:12:38.740Z,100941.64
2019-02-05T06:15:07.462Z,100929.89
2019-02-05T06:17:34.613Z,100925.98
2019-02-05T06:20:01.752Z,100933.38
2019-02-05T06:22:28.851Z,100929.90
2019-02-05T06:24:56.040Z,100932.91
2019-02-05T06:27:23.168Z,100939.91
2019-02-05T06:29:50.356Z,100938.16
2019-02-05T06:32:17.462Z,100939.50
2019-02-05T06:34:44.590Z,100936.45
2019-02-05T06:37:11.688Z,100941.23
2019-02-05T06:39:38.797Z,100938.22
2019-02-05T06:42:08.884Z,100936.03
2019-02-05T06:44:35.996Z,100943.87
2019-02-05T06:47:03.593Z,100945.61
2019-02-05T06:49:30.715Z,100944.73
2019-02-05T06:51:57.817Z,100949.55
2019-02-05T06:54:24.938Z,100953.00
2019-02-05T06:56:52.029Z,100948.69
2019-02-05T06:59:19.165Z,100950.83
2019-02-05T07:01:46.320Z,100946.48
2019-02-05T07:04:13.433Z,100944.77
2019-02-05T07:06:40.937Z,100949.55
2019-02-05T07:09:09.156Z,100948.22
2019-02-05T07:11:36.253Z,100946.94
2019-02-05T07:14:04.397Z,100941.72
2019-02-05T07:16:31.496Z,100944.33
2019-02-05T07:18:58.825Z,100940.41
2019-02-05T07:21:25.921Z,100932.58
2019-02-05T07:23:53.223Z,100930.39
2019-02-05T07:26:20.821Z,100931.70
2019-02-05T07:28:58.206Z,100936.52
2019-02-05T07:31:16.915Z,100937.36
2019-02-05T07:33:44.117Z,100941.74
2019-02-05T07:36:11.208Z,100945.22
2019-02-05T07:38:38.347Z,100936.95
2019-02-05T07:41:05.435Z,100933.03
2019-02-05T07:43:32.536Z,100941.73
2019-02-05T07:45:59.640Z,100934.33
2019-02-05T07:48:27.042Z,100935.64
2019-02-05T07:50:54.142Z,100932.59
2019-02-05T07:53:21.227Z,100940.02
2019-02-05T07:55:48.320Z,100942.66
2019-02-05T07:58:15.452Z,100941.34
2019-02-05T08:00:42.642Z,100935.68
2019-02-05T08:03:09.769Z,100936.12
2019-02-05T08:05:37.019Z,100938.30
2019-02-05T08:08:06.428Z,100936.55
2019-02-05T08:10:33.554Z,100938.73
2019-02-05T08:13:01.560Z,100940.03
2019-02-05T08:15:30.440Z,100936.55
2019-02-05T08:17:58.877Z,100931.33
2019-02-05T08:20:26.072Z,100943.08
2019-02-05T08:22:53.168Z,100940.93
2019-02-05T08:25:20.383Z,100938.31
2019-02-05T08:27:47.477Z,100938.31
2019-02-05T08:30:19.796Z,100938.73
2019-02-05T08:32:46.887Z,100934.83
2019-02-05T08:35:14.880Z,100930.48
2019-02-05T08:37:44.186Z,100941.36
2019-02-05T08:40:16.185Z,100936.59
2019-02-05T08:42:46.329Z,100942.69
2019-02-05T08:45:18.840Z,100938.77
2019-02-05T08:47:46.146Z,100937.89
2019-02-05T08:50:15.869Z,100937.02
2019-02-05T08:52:44.345Z,100932.25
2019-02-05T08:55:13.397Z,100932.25
2019-02-05T08:57:41.804Z,100935.33
2019-02-05T09:00:13.182Z,100930.54
2019-02-05T09:02:41.487Z,100938.80
2019-02-05T09:05:08.962Z,100934.91
2019-02-05T09:07:37.956Z,100937.08
2019-02-05T09:10:06.373Z,100929.70
2019-02-05T09:12:34.605Z,100929.69
2019-02-05T09:15:01.847Z,100931.02
2019-02-05T09:17:28.955Z,100931.02
2019-02-05T09:19:58.963Z,100937.55
2019-02-05T09:22:27.526Z,100940.18
2019-02-05T09:24:54.640Z,100931.91
2019-02-05T09:27:22.865Z,100931.48
2019-02-05T09:29:49.947Z,100930.17
2019-02-05T09:32:17.181Z,100929.33
2019-02-05T09:34:46.388Z,100932.81
2019-02-05T09:37:13.488Z,100928.45
2019-02-05T09:39:40.587Z,100929.33
2019-02-05T09:42:08.872Z,100932.39
2019-02-05T09:44:35.979Z,100929.80
2019-02-05T09:47:03.175Z,100928.06
2019-02-05T09:49:30.270Z,100932.84
2019-02-05T09:51:57.376Z,100926.34
2019-02-05T09:54:24.497Z,100930.69
2019-02-05T09:56:51.628Z,100921.53
2019-02-05T09:59:18.832Z,100917.63
2019-02-05T10:01:47.782Z,100914.14
2019-02-05T10:04:14.873Z,100915.45
2019-02-05T10:06:41.975Z,100915.90
2019-02-05T10:09:09.069Z,100911.97
2019-02-05T10:11:36.220Z,100911.56
2019-02-05T10:14:03.837Z,100908.92
2019-02-05T10:16:30.926Z,100911.11
2019-02-05T10:18:58.032Z,100914.15
2019-02-05T10:21:26.047Z,100912.41
2019-02-05T10:23:53.164Z,100912.43
2019-02-05T10:26:20.266Z,100908.50
2019-02-05T10:28:50.422Z,100910.25
2019-02-05T10:31:17.604Z,100908.50
2019-02-05T10:33:54.946Z,100905.00
2019-02-05T10:36:13.718Z,100907.21
2019-02-05T10:38:40.858Z,100905.47
2019-02-05T10:41:09.112Z,100901.11
2019-02-05T10:43:38.041Z,100903.27
2019-02-05T10:46:07.101Z,100901.95
2019-02-05T10:48:35.401Z,100901.09
2019-02-05T10:51:03.808Z,100904.15
2019-02-05T10:53:38.333Z,100904.15
2019-02-05T10:56:05.333Z,100900.23
2019-02-05T10:58:33.888Z,100897.16
2019-02-05T11:01:01.020Z,100900.19
2019-02-05T11:03:28.214Z,100897.58
2019-02-05T11:05:55.537Z,100892.78
2019-02-05T11:08:23.845Z,100892.81
2019-02-05T11:10:52.752Z,100893.25
2019-02-05T11:13:20.042Z,100896.73
2019-02-05T11:15:48.696Z,100892.81
2019-02-05T11:18:16.929Z,100886.70
2019-02-05T11:20:52.760Z,100888.91
2019-02-05T11:23:19.963Z,100889.31
2019-02-05T11:25:47.076Z,100888.89
2019-02-05T11:28:15.377Z,100877.58
2019-02-05T11:30:43.851Z,100881.95
2019-02-05T11:33:11.517Z,100878.47
2019-02-05T11:35:39.871Z,100877.58
2019-02-05T11:38:07.934Z,100877.59
2019-02-05T11:40:35.554Z,100868.90
2019-02-05T11:43:02.763Z,100872.83
2019-02-05T11:45:30.291Z,100871.95
2019-02-05T11:47:58.223Z,100872.81
2019-02-05T11:50:25.449Z,100868.47
2019-02-05T11:52:52.965Z,100869.36
2019-02-05T11:55:22.202Z,100863.67
2019-02-05T11:57:49.292Z,100861.92
2019-02-05T12:00:37.724Z,100857.13
2019-02-05T12:03:07.928Z,100863.23
2019-02-05T12:05:35.224Z,100867.17
2019-02-05T12:08:02.948Z,100857.14
2019-02-05T12:10:31.187Z,100861.94
2019-02-05T12:12:59.392Z,100858.45
2019-02-05T12:15:26.488Z,100855.81
2019-02-05T12:17:55.447Z,100852.77
2019-02-05T12:20:22.633Z,100855.81
2019-02-05T12:22:50.059Z,100856.26
2019-02-05T12:25:17.881Z,100851.45
2019-02-05T12:27:45.088Z,100848.86
2019-02-05T12:30:20.050Z,100843.17
2019-02-05T12:32:47.401Z,100843.61
2019-02-05T12:35:14.681Z,100839.70
2019-02-05T12:37:41.863Z,100842.33
2019-02-05T12:40:10.240Z,100847.55
2019-02-05T12:42:37.638Z,100848.86
2019-02-05T12:45:07.588Z,100849.30
2019-02-05T12:47:34.684Z,100849.30
2019-02-05T12:50:01.791Z,100855.83
2019-02-05T12:52:28.888Z,100850.18
2019-02-05T12:54:55.988Z,100855.40
2019-02-05T12:57:23.082Z,100846.66
2019-02-05T12:59:50.196Z,100853.65
2019-02-05T13:02:17.697Z,100848.44
2019-02-05T13:04:44.819Z,100847.55
2019-02-05T13:07:11.919Z,100844.06
2019-02-05T13:09:39.002Z,100843.19
2019-02-05T13:12:06.318Z,100844.05
2019-02-05T13:14:33.458Z,100847.98
2019-02-05T13:17:00.541Z,100847.98
2019-02-05T13:19:27.955Z,100839.69
2019-02-05T13:21:55.068Z,100837.51
2019-02-05T13:24:22.172Z,100839.70
2019-02-05T13:26:49.381Z,100840.13
2019-02-05T13:29:16.661Z,100837.97
2019-02-05T13:31:45.608Z,100835.34
2019-02-05T13:34:13.818Z,100830.54
2019-02-05T13:36:43.319Z,100827.91
2019-02-05T13:39:12.557Z,100834.89
2019-02-05T13:41:39.654Z,100830.52
2019-02-05T13:44:06.820Z,100837.08
2019-02-05T13:46:33.938Z,100832.73
2019-02-05T13:49:03.399Z,100836.22
2019-02-05T13:51:32.405Z,100843.63
2019-02-05T13:53:59.614Z,100842.76
2019-02-05T13:56:26.776Z,100845.36
2019-02-05T13:58:53.944Z,100840.56
2019-02-05T14:01:21.144Z,100840.14
2019-02-05T14:03:51.040Z,100838.39
2019-02-05T14:06:19.349Z,100841.89
2019-02-05T14:08:46.464Z,100832.29
2019-02-05T14:11:13.660Z,100829.66
2019-02-05T14:13:41.812Z,100836.20
2019-02-05T14:16:09.027Z,100840.14
2019-02-05T14:18:37.429Z,100844.93
2019-02-05T14:21:04.635Z,100839.25
2019-02-05T14:23:31.847Z,100844.92
2019-02-05T14:25:59.706Z,100852.77
2019-02-05T14:28:30.024Z,100853.66
2019-02-05T14:30:58.845Z,100847.11
2019-02-05T14:33:27.754Z,100853.23
2019-02-05T14:35:56.740Z,100864.13
2019-02-05T14:38:24.048Z,100861.50
2019-02-05T14:40:51.194Z,100863.67
2019-02-05T14:43:18.955Z,100867.61
2019-02-05T14:45:46.473Z,100862.38
2019-02-05T14:48:14.737Z,100864.54
2019-02-05T14:50:42.384Z,100877.19
2019-02-05T14:53:10.291Z,100867.16
2019-02-05T14:55:37.405Z,100869.77
2019-02-05T14:58:06.053Z,100873.25
2019-02-05T15:00:33.568Z,100871.52
2019-02-05T15:03:02.100Z,100868.43
2019-02-05T15:05:29.490Z,100871.06
2019-02-05T15:07:56.701Z,100874.10
2019-02-05T15:10:25.845Z,100879.33
2019-02-05T15:12:52.953Z,100884.56
2019-02-05T15:15:20.216Z,100874.97
2019-02-05T15:17:47.932Z,100870.17
2019-02-05T15:20:18.263Z,100878.00
2019-02-05T15:22:46.437Z,100878.43
2019-02-05T15:25:13.673Z,100878.86
2019-02-05T15:27:40.785Z,100876.66
2019-02-05T15:30:11.781Z,100878.42
2019-02-05T15:33:04.287Z,100871.45
2019-02-05T15:35:31.424Z,100869.72
2019-02-05T15:37:59.971Z,100865.79
2019-02-05T15:40:27.073Z,100871.45
2019-02-05T15:42:54.313Z,100873.18
2019-02-05T15:45:23.202Z,100878.42
2019-02-05T15:47:52.120Z,100879.70
2019-02-05T15:50:19.537Z,100885.38
2019-02-05T15:52:47.861Z,100884.07
2019-02-05T15:55:17.505Z,100884.95
2019-02-05T15:57:46.826Z,100888.44
2019-02-05T16:00:15.330Z,100888.88
2019-02-05T16:02:43.765Z,100891.05
2019-02-05T16:05:13.974Z,100890.59
2019-02-05T16:07:42.944Z,100899.73
2019-02-05T16:10:13.286Z,100901.04
2019-02-05T16:12:43.297Z,100902.80
2019-02-05T16:15:12.559Z,100906.69
2019-02-05T16:17:39.687Z,100912.80
2019-02-05T16:20:08.524Z,100923.25
2019-02-05T16:22:36.853Z,100916.73
2019-02-05T16:25:06.043Z,100922.36
2019-02-05T16:27:33.140Z,100924.55
2019-02-05T16:30:00.392Z,100931.09
2019-02-05T16:32:27.836Z,100936.75
2019-02-05T16:34:54.940Z,100931.48
2019-02-05T16:37:22.039Z,100934.54
2019-02-05T16:39:49.143Z,100937.11
2019-02-05T16:42:18.163Z,100945.83
2019-02-05T16:44:45.529Z,100952.80
2019-02-05T16:47:14.154Z,100955.82
2019-02-05T16:49:43.257Z,100952.34
2019-02-05T16:52:10.433Z,100958.86
2019-02-05T16:54:37.625Z,100960.14
2019-02-05T16:57:04.733Z,100966.22
2019-02-05T16:59:31.830Z,100969.23
2019-02-05T17:01:59.127Z,100970.11
2019-02-05T17:04:26.281Z,100980.10
2019-02-05T17:06:56.347Z,100975.30
2019-02-05T17:09:24.634Z,100980.95
2019-02-05T17:11:51.724Z,100972.64
2019-02-05T17:14:18.816Z,100990.06
2019-02-05T17:16:47.229Z,100989.56
2019-02-05T17:19:15.658Z,100991.25
2019-02-05T17:21:42.906Z,100995.58
2019-02-05T17:24:10.425Z,101005.59
2019-02-05T17:26:37.531Z,101007.34
2019-02-05T17:29:04.728Z,101012.97
2019-02-05T17:31:32.940Z,101017.28
2019-02-05T17:34:00.062Z,101024.63
2019-02-05T17:36:27.174Z,101032.02
2019-02-05T17:38:54.264Z,101034.20
2019-02-05T17:41:21.667Z,101037.25
2019-02-05T17:43:50.420Z,101048.09
2019-02-05T17:46:18.211Z,101052.41
2019-02-05T17:48:45.623Z,101050.16
2019-02-05T17:51:15.232Z,101051.84
2019-02-05T17:53:44.236Z,101057.50
2019-02-05T17:56:11.653Z,101062.71
2019-02-05T17:58:39.020Z,101077.94
2019-02-05T18:01:09.661Z,101085.30
2019-02-05T18:03:36.904Z,101082.69
2019-02-05T18:06:05.311Z,101082.65
2019-02-05T18:08:32.874Z,101084.79
2019-02-05T18:11:02.073Z,101093.45
2019-02-05T18:13:29.798Z,101104.67
2019-02-05T18:16:00.326Z,101099.81
2019-02-05T18:18:27.927Z,101101.94
2019-02-05T18:20:55.175Z,101104.08
2019-02-05T18:23:22.441Z,101112.25
2019-02-05T18:25:49.624Z,101106.98
2019-02-05T18:28:16.720Z,101114.77
2019-02-05T18:30:43.946Z,101115.59
2019-02-05T18:33:11.473Z,101120.80
2019-02-05T18:35:43.320Z,101133.36
2019-02-05T18:38:12.539Z,101136.41
2019-02-05T18:40:39.712Z,101142.50
2019-02-05T18:43:08.349Z,101145.48
2019-02-05T18:45:35.859Z,101155.83
2019-02-05T18:48:06.779Z,101156.25
2019-02-05T18:50:34.106Z,101148.77
2019-02-05T18:53:02.904Z,101154.86
2019-02-05T18:55:30.920Z,101150.08
2019-02-05T18:58:09.243Z,101153.11
2019-02-05T19:00:33.645Z,101156.55
2019-02-05T19:03:14.468Z,101163.92
2019-02-05T19:05:41.774Z,101168.22
2019-02-05T19:08:09.264Z,101173.33
2019-02-05T19:10:45.856Z,101175.83
2019-02-05T19:13:18.191Z,101187.92
2019-02-05T19:15:47.236Z,101188.32
2019-02-05T19:18:15.855Z,101198.23
2019-02-05T19:20:42.991Z,101199.93
2019-02-05T19:23:11.995Z,101208.55
2019-02-05T19:25:50.818Z,101207.68
2019-02-05T19:28:30.556Z,101211.05
2019-02-05T19:31:01.495Z,101209.19
2019-02-05T19:33:29.634Z,101208.69
2019-02-05T19:35:57.247Z,101205.22
2019-02-05T19:38:26.550Z,101208.63
2019-02-05T19:40:57.659Z,101221.59
2019-02-05T19:43:26.689Z,101228.97
2019-02-05T19:46:18.099Z,101235.73
2019-02-05T19:48:50.183Z,101238.25
2019-02-05T19:51:17.365Z,101259.02
2019-02-05T19:53:47.750Z,101271.91
2019-02-05T19:56:15.141Z,101267.81
2019-02-05T19:58:42.716Z,101283.30
2019-02-05T20:01:10.197Z,101287.68
2019-02-05T20:03:39.069Z,101286.38
2019-02-05T20:06:06.554Z,101294.97
2019-02-05T20:08:33.716Z,101307.15
2019-02-05T20:11:05.617Z,101298.89
2019-02-05T20:13:40.279Z,101304.45
2019-02-05T20:16:04.233Z,101304.39
2019-02-05T20:18:31.439Z,101315.59
2019-02-05T20:20:58.643Z,101314.71
2019-02-05T20:23:25.928Z,101322.52
2019-02-05T20:25:53.329Z,101332.50
2019-02-05T20:28:20.621Z,101344.16
2019-02-05T20:30:48.054Z,101349.34
2019-02-05T20:33:17.530Z,101351.42
2019-02-05T20:35:45.933Z,101363.91
2019-02-05T20:38:13.033Z,101363.36
2019-02-05T20:40:41.425Z,101366.73
2019-02-05T20:43:10.568Z,101379.37
2019-02-05T20:45:51.195Z,101382.42
2019-02-05T20:48:30.707Z,101390.23
2019-02-05T20:51:00.712Z,101397.06
2019-02-05T20:53:29.504Z,101401.78
2019-02-05T20:55:56.794Z,101409.91
2019-02-05T20:58:23.963Z,101411.94
2019-02-05T21:00:51.071Z,101409.58
2019-02-05T21:03:18.459Z,101418.17
2019-02-05T21:05:46.972Z,101426.42
2019-02-05T21:08:14.015Z,101427.25
2019-02-05T21:10:41.125Z,101440.56
2019-02-05T21:13:08.274Z,101431.41
2019-02-05T21:15:35.384Z,101439.21
2019-02-05T21:18:02.613Z,101436.98
2019-02-05T21:20:33.300Z,101444.86
2019-02-05T21:22:59.503Z,101452.23
2019-02-05T21:25:26.591Z,101449.66
2019-02-05T21:27:53.724Z,101458.02
2019-02-05T21:30:20.872Z,101461.31
2019-02-05T21:32:48.167Z,101465.11
2019-02-05T21:35:15.731Z,101464.84
2019-02-05T21:37:43.221Z,101471.08
2019-02-05T21:40:16.480Z,101483.98
2019-02-05T21:42:43.590Z,101475.73
2019-02-05T21:45:16.746Z,101482.20
2019-02-05T21:47:44.230Z,101486.91
2019-02-05T21:50:13.410Z,101493.74
2019-02-05T21:52:41.726Z,101497.16
2019-02-05T21:55:09.831Z,101502.31
2019-02-05T21:57:38.968Z,101506.54
2019-02-05T22:00:19.230Z,101506.54
2019-02-05T22:02:52.415Z,101504.36
2019-02-05T22:05:22.346Z,101509.98
2019-02-05T22:07:49.444Z,101527.22
2019-02-05T22:10:17.548Z,101526.28
2019-02-05T22:12:44.658Z,101539.98
2019-02-05T22:15:12.485Z,101541.63
2019-02-05T22:17:39.667Z,101548.21
2019-02-05T22:20:11.786Z,101558.64
2019-02-05T22:22:38.935Z,101554.26
2019-02-05T22:25:09.781Z,101556.85
2019-02-05T22:27:37.044Z,101563.66
2019-02-05T22:30:09.087Z,101557.62
2019-02-05T22:32:36.669Z,101556.68
2019-02-05T22:35:04.143Z,101560.99
2019-02-05T22:37:31.277Z,101565.23
2019-02-05T22:39:58.369Z,101560.95
2019-02-05T22:42:27.340Z,101573.55
2019-02-05T22:44:54.748Z,101587.53
2019-02-05T22:47:21.909Z,101584.88
2019-02-05T22:49:49.004Z,101584.17
2019-02-05T22:52:18.171Z,101587.16
2019-02-05T22:54:47.829Z,101589.67
2019-02-05T22:57:14.920Z,101590.89
2019-02-05T22:59:42.460Z,101590.55
2019-02-05T23:02:09.852Z,101586.02
2019-02-05T23:05:06.511Z,101590.05
2019-02-05T23:07:33.726Z,101594.55
2019-02-05T23:10:18.493Z,101601.26
2019-02-05T23:13:12.575Z,101604.54
2019-02-05T23:15:44.749Z,101604.73
2019-02-05T23:18:15.360Z,101605.11
2019-02-05T23:20:49.147Z,101611.44
2019-02-05T23:23:20.133Z,101613.00
2019-02-05T23:25:50.401Z,101612.36
2019-02-05T23:28:17.659Z,101628.91
2019-02-05T23:30:46.794Z,101629.02
2019-02-05T23:33:16.356Z,101637.86
2019-02-05T23:35:47.785Z,101638.07
2019-02-05T23:38:20.635Z,101641.50
2019-02-05T23:40:47.818Z,101645.87
2019-02-05T23:43:16.224Z,101646.45
2019-02-05T23:45:45.331Z,101655.75
2019-02-05T23:48:12.548Z,101665.94
2019-02-05T23:50:39.861Z,101672.34
2019-02-05T23:53:07.049Z,101676.14
2019-02-05T23:55:35.379Z,101679.00
2019-02-05T23:58:04.378Z,101685.45
